createdAt,value
2023-04-02T00:01:02.079Z,92.96
2023-04-02T00:03:42.627Z,90.75
2023-04-02T00:06:33.325Z,91.08
2023-04-02T00:09:16.388Z,90.73
2023-04-02T00:11:48.758Z,90.28
2023-04-02T00:14:22.021Z,91.74
2023-04-02T00:16:49.265Z,90.84
2023-04-02T00:19:24.233Z,90.91
2023-04-02T00:21:52.486Z,91.14
2023-04-02T00:24:22.348Z,90.75
2023-04-02T00:26:52.099Z,90.41
2023-04-02T00:29:20.031Z,90.42
2023-04-02T00:31:49.969Z,90.16
2023-04-02T00:34:41.339Z,89.57
2023-04-02T00:37:08.168Z,89.84
2023-04-02T00:39:42.279Z,90.15
2023-04-02T00:42:11.656Z,89.69
2023-04-02T00:44:43.310Z,89.66
2023-04-02T00:47:22.848Z,90.80
2023-04-02T00:49:57.275Z,88.91
2023-04-02T00:52:28.108Z,89.88
2023-04-02T00:55:10.593Z,89.96
2023-04-02T00:57:37.761Z,89.60
2023-04-02T01:00:24.018Z,89.51
2023-04-02T01:03:29.325Z,89.49
2023-04-02T01:06:03.009Z,88.61
2023-04-02T01:08:34.208Z,89.43
2023-04-02T01:11:16.129Z,90.13
2023-04-02T01:14:03.877Z,89.52
2023-04-02T01:16:30.857Z,89.67
2023-04-02T01:19:06.645Z,88.92
2023-04-02T01:22:12.214Z,89.35
2023-04-02T01:24:39.038Z,88.99
2023-04-02T01:27:15.101Z,90.64
2023-04-02T01:29:52.958Z,89.67
2023-04-02T01:32:22.877Z,88.01
2023-04-02T01:34:51.946Z,88.40
2023-04-02T01:37:24.586Z,89.38
2023-04-02T01:40:14.814Z,88.14
2023-04-02T01:42:49.558Z,89.00
2023-04-02T01:45:19.847Z,89.02
2023-04-02T01:47:46.879Z,87.54
2023-04-02T01:50:19.619Z,87.32
2023-04-02T01:52:54.024Z,87.64
2023-04-02T01:55:34.992Z,87.77
2023-04-02T01:58:04.053Z,87.51
2023-04-02T02:00:32.595Z,88.43
2023-04-02T02:03:01.368Z,87.40
2023-04-02T02:05:29.388Z,87.49
2023-04-02T02:07:58.410Z,87.50
2023-04-02T02:10:43.310Z,88.51
2023-04-02T02:13:16.157Z,88.50
2023-04-02T02:15:42.906Z,87.51
2023-04-02T02:18:12.749Z,86.89
2023-04-02T02:20:40.043Z,86.92
2023-04-02T02:23:07.485Z,87.64
2023-04-02T02:25:36.538Z,85.94
2023-04-02T02:28:26.652Z,86.33
2023-04-02T02:30:59.108Z,85.50
2023-04-02T02:33:49.274Z,86.34
2023-04-02T02:36:33.691Z,85.50
2023-04-02T02:39:29.721Z,85.41
2023-04-02T02:42:14.754Z,84.86
2023-04-02T02:44:46.634Z,84.60
2023-04-02T02:47:19.146Z,85.70
2023-04-02T02:49:50.129Z,84.58
2023-04-02T02:52:20.627Z,84.26
2023-04-02T02:54:52.055Z,84.19
2023-04-02T02:57:32.372Z,83.65
2023-04-02T03:00:01.865Z,84.55
2023-04-02T03:02:29.262Z,83.22
2023-04-02T03:04:56.948Z,84.27
2023-04-02T03:07:26.914Z,83.63
2023-04-02T03:10:12.552Z,82.66
2023-04-02T03:13:10.008Z,82.73
2023-04-02T03:15:51.455Z,82.52
2023-04-02T03:18:39.593Z,82.48
2023-04-02T03:21:11.917Z,82.21
2023-04-02T03:23:51.408Z,82.11
2023-04-02T03:26:25.837Z,83.39
2023-04-02T03:29:05.024Z,83.06
2023-04-02T03:31:38.154Z,82.86
2023-04-02T03:34:13.721Z,83.04
2023-04-02T03:36:49.251Z,82.94
2023-04-02T03:39:41.915Z,82.52
2023-04-02T03:42:21.805Z,83.36
2023-04-02T03:44:55.148Z,83.02
2023-04-02T03:47:43.107Z,82.62
2023-04-02T03:50:28.120Z,84.19
2023-04-02T03:52:54.874Z,84.07
2023-04-02T03:55:29.217Z,84.32
2023-04-02T03:58:19.008Z,84.33
2023-04-02T04:00:54.959Z,84.42
2023-04-02T04:03:30.917Z,84.34
2023-04-02T04:06:01.568Z,84.74
2023-04-02T04:08:42.596Z,84.02
2023-04-02T04:11:16.196Z,84.50
2023-04-02T04:14:09.907Z,84.55
2023-04-02T04:16:43.059Z,84.63
2023-04-02T04:19:32.888Z,83.40
2023-04-02T04:22:14.962Z,84.79
2023-04-02T04:24:45.757Z,83.01
2023-04-02T04:27:33.934Z,83.21
2023-04-02T04:30:06.474Z,84.96
2023-04-02T04:32:50.337Z,83.78
2023-04-02T04:35:26.892Z,83.34
2023-04-02T04:38:12.313Z,83.57
2023-04-02T04:40:50.569Z,84.35
2023-04-02T04:43:24.935Z,84.56
2023-04-02T04:45:58.396Z,83.10
2023-04-02T04:48:36.830Z,83.26
2023-04-02T04:51:08.938Z,83.16
2023-04-02T04:53:48.518Z,83.36
2023-04-02T04:56:19.929Z,83.46
2023-04-02T04:59:22.190Z,83.25
2023-04-02T05:02:00.620Z,84.99
2023-04-02T05:04:40.159Z,82.61
2023-04-02T05:07:28.410Z,82.65
2023-04-02T05:10:04.138Z,82.21
2023-04-02T05:12:37.873Z,83.19
2023-04-02T05:15:11.604Z,82.90
2023-04-02T05:17:42.688Z,82.90
2023-04-02T05:20:18.333Z,82.58
2023-04-02T05:23:08.404Z,83.88
2023-04-02T05:25:35.636Z,81.69
2023-04-02T05:28:11.637Z,81.30
2023-04-02T05:30:47.286Z,80.75
2023-04-02T05:33:17.970Z,79.68
2023-04-02T05:35:53.660Z,81.13
2023-04-02T05:38:23.989Z,82.05
2023-04-02T05:41:17.488Z,81.36
2023-04-02T05:43:49.065Z,81.67
2023-04-02T05:46:18.784Z,79.88
2023-04-02T05:48:51.870Z,81.78
2023-04-02T05:51:44.897Z,81.13
2023-04-02T05:54:31.634Z,77.83
2023-04-02T05:57:10.173Z,78.10
2023-04-02T05:59:44.830Z,79.01
2023-04-02T06:02:24.281Z,79.20
2023-04-02T06:04:57.660Z,76.24
2023-04-02T06:07:30.211Z,76.26
2023-04-02T06:10:08.660Z,75.75
2023-04-02T06:12:47.047Z,75.03
2023-04-02T06:15:19.598Z,75.23
2023-04-02T06:17:52.778Z,74.57
2023-04-02T06:20:21.395Z,76.01
2023-04-02T06:22:58.409Z,76.04
2023-04-02T06:25:32.568Z,75.20
2023-04-02T06:28:01.930Z,74.19
2023-04-02T06:30:32.932Z,74.79
2023-04-02T06:32:59.808Z,75.01
2023-04-02T06:35:27.320Z,75.21
2023-04-02T06:37:57.631Z,74.67
2023-04-02T06:40:46.455Z,74.10
2023-04-02T06:43:43.238Z,74.47
2023-04-02T06:46:18.508Z,74.92
2023-04-02T06:48:47.893Z,73.89
2023-04-02T06:51:17.044Z,74.70
2023-04-02T06:53:47.306Z,74.64
2023-04-02T06:56:45.109Z,74.42
2023-04-02T06:59:13.005Z,74.27
2023-04-02T07:01:53.841Z,73.78
2023-04-02T07:04:21.849Z,73.51
2023-04-02T07:06:48.861Z,73.75
2023-04-02T07:09:15.624Z,73.63
2023-04-02T07:11:42.380Z,74.66
2023-04-02T07:14:13.184Z,73.19
2023-04-02T07:16:44.199Z,72.72
2023-04-02T07:19:20.222Z,73.92
2023-04-02T07:21:47.507Z,72.11
2023-04-02T07:24:14.725Z,73.26
2023-04-02T07:26:42.122Z,70.55
2023-04-02T07:29:13.756Z,71.73
2023-04-02T07:31:43.912Z,71.42
2023-04-02T07:34:10.727Z,72.11
2023-04-02T07:36:37.732Z,71.09
2023-04-02T07:39:05.584Z,70.94
2023-04-02T07:41:32.332Z,70.74
2023-04-02T07:43:59.203Z,71.48
2023-04-02T07:46:26.160Z,71.35
2023-04-02T07:48:53.026Z,72.68
2023-04-02T07:51:23.044Z,71.40
2023-04-02T07:53:51.363Z,69.16
2023-04-02T07:56:21.183Z,70.05
2023-04-02T07:58:48.051Z,68.43
2023-04-02T08:01:21.433Z,67.47
2023-04-02T08:03:48.389Z,69.44
2023-04-02T08:06:15.215Z,66.06
2023-04-02T08:08:42.210Z,65.79
2023-04-02T08:11:09.847Z,62.37
2023-04-02T08:13:36.768Z,65.49
2023-04-02T08:16:05.084Z,62.36
2023-04-02T08:18:32.031Z,61.54
2023-04-02T08:20:59.503Z,61.02
2023-04-02T08:23:27.371Z,59.92
2023-04-02T08:25:58.074Z,59.02
2023-04-02T08:28:24.856Z,60.60
2023-04-02T08:30:52.809Z,59.34
2023-04-02T08:33:20.024Z,63.70
2023-04-02T08:35:48.017Z,60.79
2023-04-02T08:38:16.708Z,61.00
2023-04-02T08:40:46.539Z,60.25
2023-04-02T08:43:41.020Z,61.46
2023-04-02T08:46:26.897Z,58.18
2023-04-02T08:48:57.230Z,53.70
2023-04-02T08:51:36.708Z,55.47
2023-04-02T08:54:29.061Z,57.89
2023-04-02T08:57:02.404Z,59.50
2023-04-02T08:59:41.959Z,60.36
2023-04-02T09:02:30.636Z,62.79
2023-04-02T09:05:00.188Z,64.16
2023-04-02T09:07:28.220Z,64.90
2023-04-02T09:09:55.800Z,65.96
2023-04-02T09:12:26.834Z,66.26
2023-04-02T09:15:12.352Z,66.22
2023-04-02T09:17:53.977Z,65.93
2023-04-02T09:20:24.729Z,66.04
2023-04-02T09:22:53.376Z,65.82
2023-04-02T09:25:29.923Z,65.25
2023-04-02T09:28:00.960Z,65.07
2023-04-02T09:30:33.446Z,64.47
2023-04-02T09:33:08.012Z,65.15
2023-04-02T09:35:37.792Z,65.37
2023-04-02T09:38:07.408Z,64.17
2023-04-02T09:40:42.573Z,63.46
2023-04-02T09:43:15.780Z,62.70
2023-04-02T09:45:44.513Z,61.41
2023-04-02T09:48:45.785Z,62.41
2023-04-02T09:51:12.812Z,60.88
2023-04-02T09:53:42.566Z,60.52
2023-04-02T09:56:19.101Z,61.39
2023-04-02T09:59:01.605Z,61.38
2023-04-02T10:01:44.085Z,61.49
2023-04-02T10:04:29.862Z,60.91
2023-04-02T10:06:58.122Z,57.24
2023-04-02T10:09:33.664Z,53.72
2023-04-02T10:12:02.983Z,53.68
2023-04-02T10:14:45.718Z,51.14
2023-04-02T10:17:18.853Z,52.63
2023-04-02T10:20:28.476Z,49.92
2023-04-02T10:22:56.037Z,50.05
2023-04-02T10:25:26.424Z,51.72
2023-04-02T10:28:05.124Z,53.97
2023-04-02T10:30:58.122Z,53.32
2023-04-02T10:33:33.350Z,53.54
2023-04-02T10:36:23.252Z,55.50
2023-04-02T10:39:20.230Z,56.22
2023-04-02T10:41:54.008Z,58.00
2023-04-02T10:44:26.363Z,56.31
2023-04-02T10:46:58.991Z,57.57
2023-04-02T10:50:01.421Z,58.30
2023-04-02T10:52:38.439Z,59.45
2023-04-02T10:55:15.744Z,58.28
2023-04-02T10:57:44.273Z,59.25
2023-04-02T11:00:11.417Z,58.48
2023-04-02T11:02:52.442Z,59.92
2023-04-02T11:05:27.296Z,59.12
2023-04-02T11:08:18.366Z,59.46
2023-04-02T11:10:53.648Z,60.71
2023-04-02T11:13:29.497Z,60.34
2023-04-02T11:15:56.627Z,60.92
2023-04-02T11:18:37.486Z,60.25
2023-04-02T11:21:28.416Z,59.05
2023-04-02T11:24:02.889Z,59.33
2023-04-02T11:26:44.774Z,60.26
2023-04-02T11:29:41.587Z,61.31
2023-04-02T11:32:20.460Z,60.01
2023-04-02T11:34:49.546Z,59.31
2023-04-02T11:37:29.527Z,59.79
2023-04-02T11:39:59.414Z,60.07
2023-04-02T11:42:31.583Z,60.85
2023-04-02T11:45:24.452Z,60.21
2023-04-02T11:48:00.242Z,58.92
2023-04-02T11:50:39.617Z,59.12
2023-04-02T11:53:12.066Z,59.54
2023-04-02T11:55:45.777Z,58.28
2023-04-02T11:58:29.753Z,58.58
2023-04-02T12:01:16.502Z,58.43
2023-04-02T12:04:01.725Z,58.32
2023-04-02T12:06:47.363Z,58.26
2023-04-02T12:09:42.580Z,58.20
2023-04-02T12:12:24.427Z,58.99
2023-04-02T12:14:56.993Z,57.91
2023-04-02T12:17:31.758Z,56.20
2023-04-02T12:20:10.091Z,56.07
2023-04-02T12:22:51.101Z,56.30
2023-04-02T12:25:20.900Z,55.70
2023-04-02T12:28:02.989Z,58.61
2023-04-02T12:30:29.748Z,54.95
2023-04-02T12:33:15.954Z,53.60
2023-04-02T12:35:44.338Z,53.02
2023-04-02T12:38:24.873Z,53.88
2023-04-02T12:40:59.515Z,54.98
2023-04-02T12:43:31.546Z,55.96
2023-04-02T12:46:02.363Z,56.40
2023-04-02T12:48:30.860Z,56.77
2023-04-02T12:50:58.327Z,54.32
2023-04-02T12:53:40.517Z,53.89
2023-04-02T12:56:10.966Z,53.05
2023-04-02T12:58:40.838Z,53.16
2023-04-02T13:01:14.600Z,52.21
2023-04-02T13:03:42.080Z,51.20
2023-04-02T13:06:22.072Z,54.89
2023-04-02T13:08:49.371Z,52.21
2023-04-02T13:11:16.497Z,49.92
2023-04-02T13:13:46.122Z,49.80
2023-04-02T13:16:12.854Z,47.47
2023-04-02T13:18:39.738Z,46.83
2023-04-02T13:21:28.584Z,45.87
2023-04-02T13:23:55.926Z,46.50
2023-04-02T13:26:27.976Z,49.54
2023-04-02T13:29:29.397Z,50.04
2023-04-02T13:32:02.267Z,50.33
2023-04-02T13:34:29.611Z,54.87
2023-04-02T13:36:57.579Z,51.41
2023-04-02T13:39:26.259Z,49.74
2023-04-02T13:41:57.270Z,51.25
2023-04-02T13:44:27.179Z,47.62
2023-04-02T13:46:55.856Z,48.44
2023-04-02T13:49:24.477Z,49.41
2023-04-02T13:51:58.079Z,50.30
2023-04-02T13:54:43.489Z,48.47
2023-04-02T13:57:10.853Z,51.96
2023-04-02T13:59:37.656Z,48.77
2023-04-02T14:02:13.979Z,47.59
2023-04-02T14:04:45.376Z,48.29
2023-04-02T14:07:20.613Z,48.09
2023-04-02T14:10:00.107Z,48.83
2023-04-02T14:12:41.662Z,48.69
2023-04-02T14:15:32.328Z,51.29
2023-04-02T14:18:20.143Z,50.89
2023-04-02T14:21:14.790Z,50.45
2023-04-02T14:23:59.688Z,50.09
2023-04-02T14:26:39.819Z,52.13
2023-04-02T14:29:12.817Z,50.90
2023-04-02T14:32:02.542Z,51.46
2023-04-02T14:34:47.044Z,50.21
2023-04-02T14:37:39.709Z,50.00
2023-04-02T14:40:29.149Z,50.90
2023-04-02T14:43:02.505Z,52.09
2023-04-02T14:45:37.941Z,50.62
2023-04-02T14:48:31.437Z,52.01
2023-04-02T14:51:12.626Z,50.68
2023-04-02T14:53:52.898Z,51.04
2023-04-02T14:56:31.167Z,49.78
2023-04-02T14:59:07.744Z,50.34
2023-04-02T15:01:41.502Z,52.36
2023-04-02T15:04:18.178Z,51.46
2023-04-02T15:06:50.362Z,50.42
2023-04-02T15:09:24.933Z,50.96
2023-04-02T15:12:08.294Z,51.31
2023-04-02T15:14:44.518Z,51.91
2023-04-02T15:17:12.255Z,52.85
2023-04-02T15:19:39.263Z,53.96
2023-04-02T15:22:32.021Z,53.59
2023-04-02T15:25:27.625Z,50.81
2023-04-02T15:28:10.846Z,50.26
2023-04-02T15:30:42.116Z,51.08
2023-04-02T15:33:39.013Z,52.69
2023-04-02T15:36:33.423Z,54.54
2023-04-02T15:39:36.156Z,52.08
2023-04-02T15:42:06.165Z,51.14
2023-04-02T15:44:36.770Z,51.59
2023-04-02T15:47:24.889Z,53.38
2023-04-02T15:50:13.411Z,53.23
2023-04-02T15:53:09.180Z,54.97
2023-04-02T15:55:46.556Z,55.10
2023-04-02T15:58:25.184Z,55.66
2023-04-02T16:01:04.262Z,52.79
2023-04-02T16:03:46.499Z,54.01
2023-04-02T16:06:28.557Z,54.74
2023-04-02T16:09:32.609Z,53.71
2023-04-02T16:12:12.018Z,51.64
2023-04-02T16:14:40.507Z,55.25
2023-04-02T16:17:25.631Z,50.81
2023-04-02T16:20:26.688Z,50.11
2023-04-02T16:23:02.675Z,50.03
2023-04-02T16:25:39.631Z,50.87
2023-04-02T16:28:23.771Z,52.65
2023-04-02T16:31:01.330Z,53.63
2023-04-02T16:33:44.610Z,54.32
2023-04-02T16:36:28.503Z,54.78
2023-04-02T16:39:01.459Z,53.60
2023-04-02T16:41:51.103Z,52.62
2023-04-02T16:44:39.541Z,52.78
2023-04-02T16:47:11.983Z,54.41
2023-04-02T16:49:52.090Z,55.85
2023-04-02T16:52:49.556Z,56.44
2023-04-02T16:55:31.539Z,57.72
2023-04-02T16:58:16.734Z,57.17
2023-04-02T17:00:53.653Z,57.41
2023-04-02T17:03:32.438Z,57.85
2023-04-02T17:06:08.539Z,57.59
2023-04-02T17:08:43.485Z,59.25
2023-04-02T17:11:21.594Z,59.10
2023-04-02T17:14:06.222Z,59.32
2023-04-02T17:16:37.398Z,59.01
2023-04-02T17:19:10.573Z,60.13
2023-04-02T17:21:40.277Z,60.30
2023-04-02T17:24:06.980Z,59.90
2023-04-02T17:26:37.923Z,60.58
2023-04-02T17:29:13.204Z,61.62
2023-04-02T17:31:42.228Z,61.66
2023-04-02T17:34:17.895Z,62.19
2023-04-02T17:37:03.910Z,62.85
2023-04-02T17:39:46.095Z,62.14
2023-04-02T17:42:12.769Z,61.92
2023-04-02T17:44:52.789Z,64.09
2023-04-02T17:47:28.680Z,64.16
2023-04-02T17:50:20.079Z,63.60
2023-04-02T17:53:03.655Z,63.90
2023-04-02T17:55:40.847Z,63.89
2023-04-02T17:58:28.665Z,64.22
2023-04-02T18:01:32.001Z,65.31
2023-04-02T18:04:23.359Z,64.32
2023-04-02T18:07:41.123Z,65.26
2023-04-02T18:10:54.378Z,64.94
2023-04-02T18:13:38.331Z,64.74
2023-04-02T18:16:34.176Z,65.52
2023-04-02T18:19:06.124Z,65.64
2023-04-02T18:21:54.581Z,65.44
2023-04-02T18:24:41.241Z,66.35
2023-04-02T18:27:17.087Z,65.92
2023-04-02T18:30:09.683Z,66.58
2023-04-02T18:32:47.521Z,67.26
2023-04-02T18:35:14.230Z,66.29
2023-04-02T18:37:58.298Z,66.46
2023-04-02T18:40:52.959Z,66.40
2023-04-02T18:43:47.469Z,67.24
2023-04-02T18:46:55.723Z,66.69
2023-04-02T18:49:25.523Z,67.18
2023-04-02T18:52:02.253Z,66.62
2023-04-02T18:54:45.971Z,67.60
2023-04-02T18:57:17.618Z,67.52
2023-04-02T19:00:06.551Z,66.94
2023-04-02T19:02:56.071Z,67.46
2023-04-02T19:05:22.833Z,68.05
2023-04-02T19:07:55.498Z,67.93
2023-04-02T19:10:34.393Z,67.91
2023-04-02T19:13:01.665Z,68.26
2023-04-02T19:15:47.003Z,68.71
2023-04-02T19:18:31.946Z,68.87
2023-04-02T19:21:15.188Z,68.48
2023-04-02T19:24:00.302Z,68.55
2023-04-02T19:26:35.654Z,68.77
2023-04-02T19:29:28.565Z,68.66
2023-04-02T19:32:00.358Z,69.06
2023-04-02T19:34:33.061Z,68.96
2023-04-02T19:37:22.851Z,69.42
2023-04-02T19:40:17.414Z,69.18
2023-04-02T19:42:49.296Z,69.10
2023-04-02T19:45:31.887Z,69.94
2023-04-02T19:48:03.490Z,69.66
2023-04-02T19:50:30.534Z,69.67
2023-04-02T19:52:57.855Z,70.19
2023-04-02T19:55:24.732Z,70.41
2023-04-02T19:57:54.559Z,70.14
2023-04-02T20:00:21.841Z,69.19
2023-04-02T20:02:48.587Z,70.29
2023-04-02T20:05:15.461Z,68.76
2023-04-02T20:07:42.280Z,69.64
2023-04-02T20:10:09.747Z,68.86
2023-04-02T20:12:36.763Z,69.71
2023-04-02T20:15:07.559Z,69.82
2023-04-02T20:17:34.446Z,69.39
2023-04-02T20:20:01.303Z,70.19
2023-04-02T20:22:28.078Z,69.69
2023-04-02T20:24:55.104Z,69.90
2023-04-02T20:27:21.852Z,70.23
2023-04-02T20:29:48.913Z,69.16
2023-04-02T20:32:17.653Z,69.52
2023-04-02T20:34:44.704Z,69.48
2023-04-02T20:37:11.503Z,69.19
2023-04-02T20:39:39.230Z,69.83
2023-04-02T20:42:06.327Z,70.25
2023-04-02T20:44:33.110Z,69.83
2023-04-02T20:46:59.888Z,69.61
2023-04-02T20:49:26.763Z,69.68
2023-04-02T20:51:53.519Z,70.26
2023-04-02T20:54:20.491Z,69.46
2023-04-02T20:56:47.564Z,69.24
2023-04-02T20:59:14.273Z,70.10
2023-04-02T21:01:41.077Z,69.68
2023-04-02T21:04:08.330Z,70.17
2023-04-02T21:06:38.336Z,70.21
2023-04-02T21:09:08.571Z,70.11
2023-04-02T21:11:36.944Z,70.48
2023-04-02T21:14:04.498Z,70.18
2023-04-02T21:16:32.313Z,70.92
2023-04-02T21:19:05.475Z,72.57
2023-04-02T21:21:33.332Z,71.52
2023-04-02T21:24:01.239Z,71.13
2023-04-02T21:26:30.970Z,70.97
2023-04-02T21:28:59.159Z,71.32
2023-04-02T21:31:30.903Z,70.97
2023-04-02T21:33:59.288Z,71.58
2023-04-02T21:36:27.332Z,71.90
2023-04-02T21:38:57.121Z,71.61
2023-04-02T21:41:32.861Z,72.16
2023-04-02T21:44:01.174Z,72.03
2023-04-02T21:46:30.126Z,72.43
2023-04-02T21:48:58.941Z,72.51
2023-04-02T21:51:31.218Z,73.24
2023-04-02T21:53:58.598Z,73.64
2023-04-02T21:56:28.648Z,73.24
2023-04-02T21:58:57.109Z,73.06
2023-04-02T22:01:28.132Z,73.62
2023-04-02T22:03:57.139Z,73.03
2023-04-02T22:06:26.534Z,73.64
2023-04-02T22:08:56.439Z,73.74
2023-04-02T22:11:32.059Z,74.24
2023-04-02T22:13:59.602Z,73.92
2023-04-02T22:16:28.619Z,74.21
2023-04-02T22:18:57.565Z,74.11
2023-04-02T22:21:24.600Z,75.01
2023-04-02T22:23:51.717Z,75.13
2023-04-02T22:26:20.209Z,75.04
2023-04-02T22:28:47.145Z,74.89
2023-04-02T22:31:17.569Z,75.16
2023-04-02T22:33:45.982Z,75.61
2023-04-02T22:36:16.445Z,75.15
2023-04-02T22:38:43.284Z,75.62
2023-04-02T22:41:19.303Z,75.90
2023-04-02T22:43:46.192Z,75.45
2023-04-02T22:46:15.968Z,75.55
2023-04-02T22:48:43.821Z,75.83
2023-04-02T22:51:11.946Z,75.56
2023-04-02T22:53:39.603Z,76.12
2023-04-02T22:56:15.658Z,75.68
2023-04-02T22:58:43.151Z,76.20
2023-04-02T23:01:25.245Z,76.47
2023-04-02T23:03:54.521Z,76.20
2023-04-02T23:06:21.896Z,76.27
2023-04-02T23:08:48.884Z,76.56
2023-04-02T23:11:22.149Z,76.22
2023-04-02T23:13:50.585Z,76.24
2023-04-02T23:16:17.943Z,75.83
2023-04-02T23:18:48.172Z,76.44
2023-04-02T23:21:16.556Z,75.79
2023-04-02T23:23:44.020Z,76.58
2023-04-02T23:26:14.753Z,76.18
2023-04-02T23:28:41.916Z,75.94
2023-04-02T23:31:12.648Z,76.09
2023-04-02T23:33:40.034Z,76.14
2023-04-02T23:36:09.580Z,75.96
2023-04-02T23:38:36.449Z,76.02
2023-04-02T23:41:03.300Z,75.35
2023-04-02T23:43:30.083Z,76.12
2023-04-02T23:45:56.892Z,75.67
2023-04-02T23:48:23.735Z,74.82
2023-04-02T23:50:50.603Z,75.37
2023-04-02T23:53:18.839Z,75.46
2023-04-02T23:55:46.033Z,75.51
2023-04-02T23:58:12.832Z,75.40
